Details From UBBB - Heydar Aliyev
To URMM - Mineralnyye Vody
Flight Number -
Tags Generated
Created
Modified
Stats Distance 383 nm / 709 km
Max Altitude 0 ft / 0 m
Waypoints 3
Social Downloads 0
Likes 0
Share VATSIM

Download

Looking for another format? Having issues loading an existing format? Contact us
Advertisement - Login to hide

Notes

Generated

Route

UBBB MINPU URMM

ID Type Via Altitude Latitude Longitude Leg Dist Tot Dist Heading (true) Name
O UBBB APT - 0 ft / 0 m 40.48000˚ 50.03500˚ - 0 nm - -
MINPU FIX - 0 ft / 0 m 44.22500˚ 43.08333˚ 381 nm 381 nm 308° / 304° -
O URMM APT - 0 ft / 0 m 44.23442˚ 43.06126˚ 1 nm 382 nm 301° / 301° -

Altitude Profile

Advertisement - Login to hide

Weather


0- 5 10 15 20 25 30 35+ Temperature / ° C

Clouds and Precipitation
Forecast for 2018-05-26 18:00 UTC. Updated 3 hours ago

Ground ~20,000 ft ~40,000 ft Winds

UBBB

Details ICAO UBBB (GYD)
Name HEYDAR ALIYEV
Region Azerbiajan
Timezone Asia/Baku (UTC+4.0)
Stats Elevation 10 ft / 3 m (AMSL)
Location 40.470000° 50.052083°
Runways 2
Magnetic Variation 6.265° E

METAR

UBBB 262000Z 33029G39KT 9999 SCT050CB BKN100 18/15 Q1016 R88/290060 TEMPO -TSRA BKN040CB

Decode

TAF

TAF UBBB 261108Z 2612/2712 34026G36KT 9999 FEW050CB BKN100 TX26/2612Z TN14/2703Z TEMPO 2612/2624 35036G46KT -TSRA SCT012 SCT030CB BKN030 BECMG 2702/2704 02020KT

Decode

Departure Runways

ID Width Length Bearing (true) Bearing (mag) Surface Threshold Offset Overrun Length
16 197 ft / 60 m 9,110 ft / 2,777 m 159.17° 152.91° Asphalt 0 ft / 0 m 1,312 ft / 400 m
18 167 ft / 51 m 10,947 ft / 3,337 m 180.00° 173.74° Concrete 0 ft / 0 m 1,312 ft / 400 m
34 197 ft / 60 m 9,110 ft / 2,777 m 339.18° 332.92° Asphalt 0 ft / 0 m 656 ft / 200 m
36 167 ft / 51 m 10,947 ft / 3,337 m 0.00° 353.74° Concrete 444 ft / 135 m 541 ft / 165 m

URMM

Details ICAO URMM (MRV)
Name MINERALNYYE VODY
Region Russia
Timezone Europe/Moscow (UTC+3.0)
Stats Elevation 1,054 ft / 321 m (AMSL)
Location 44.225073° 43.081891°
Runways 1
Magnetic Variation 7.426° E

METAR

URMM 262000Z 09004MPS 9999 NSC 16/02 Q1022 R12/090070 NOSIG RMK QFE739/0985

Decode

TAF

TAF URMM 261658Z 2618/2718 08005G12MPS 9999 BKN030 TX23/2711Z TN12/2702Z TEMPO 2618/2621 3100 -SHRA BKN011 BKN020CB TEMPO 2621/2706 3100 BR BKN011 TEMPO 2706/2715 09007G17MPS

Decode

Destination Runways

ID Width Length Bearing (true) Bearing (mag) Surface Threshold Offset Overrun Length
12 197 ft / 60 m 12,766 ft / 3,891 m 122.28° 114.85° Concrete 0 ft / 0 m 240 ft / 73 m
30 197 ft / 60 m 12,766 ft / 3,891 m 302.31° 294.88° Concrete 0 ft / 0 m 250 ft / 76 m

Popular Alternatives